KILM/ILM METAR and TAF weather

Enter ICAO airport designator
Station Type Date Time Source
KILM METAR 2019/12/08 16:53 UTC NOAA

KILM 081653Z 35007KT 10SM FEW040 BKN049 OVC060 09/04 A3036 RMK AO2 RAB11E36 SLP279 P0000 T00890044


Station Type Date Time Source
KILM Decoded METAR 2019/12/08 16:53 UTC NOAA

WILMINGTON INT'L AIRPORT, NC, United States (KILM) 34-16N 077-54W 9M
Dec 08, 2019 - 11:53 AM EST / 2019.12.08 1653 UTC
Wind: from the N (350 degrees) at 8 MPH (7 KT):0
Visibility: 10 mile(s):0
Sky conditions: overcast
Precipitation last hour: A trace
Temperature: 48.0 F (8.9 C)
Dew Point: 39.9 F (4.4 C)
Relative Humidity: 73%
Pressure (altimeter): 30.36 in. Hg (1028 hPa)
ob: KILM 081653Z 35007KT 10SM FEW040 BKN049 OVC060 09/04 A3036 RMK AO2 RAB11E36 SLP279 P0000 T00890044
cycle: 17

Station Type Date Time Source
KILM TAF 2019/12/08 12:28 UTC NOAA

TAF KILM 081126Z 0812/0912 03008KT P6SM SKC
FM081400 03011KT P6SM SCT070 BKN120
FM081800 04010KT P6SM SCT025 BKN040
FM082000 06012KT 6SM -RA BR BKN025 OVC050
FM082300 07010KT 5SM -RA BR SCT010 OVC020
TEMPO 0902/0906 3SM RA BR BKN015 OVC025

Example: see airport list